createdAt,value
2023-01-19T00:01:28.698Z,0.36
2023-01-19T00:06:31.443Z,0.38
2023-01-19T00:11:32.952Z,0.50
2023-01-19T00:16:34.470Z,0.47
2023-01-19T00:21:35.971Z,0.41
2023-01-19T00:26:40.331Z,0.46
2023-01-19T00:31:41.893Z,0.49
2023-01-19T00:36:43.446Z,0.50
2023-01-19T00:42:03.290Z,0.48
2023-01-19T00:47:05.725Z,0.38
2023-01-19T00:52:07.200Z,0.44
2023-01-19T00:57:08.648Z,0.51
2023-01-19T01:02:11.470Z,0.56
2023-01-19T01:07:13.080Z,0.63
2023-01-19T01:12:14.587Z,0.58
2023-01-19T01:17:16.445Z,0.70
2023-01-19T01:22:18.443Z,0.75
2023-01-19T01:27:19.917Z,0.75
2023-01-19T01:32:21.314Z,0.71
2023-01-19T01:37:22.793Z,0.86
2023-01-19T01:42:29.588Z,0.89
2023-01-19T01:47:42.706Z,1.02
2023-01-19T01:53:06.473Z,1.07
2023-01-19T01:58:11.264Z,1.12
2023-01-19T02:03:12.773Z,1.14
2023-01-19T02:08:38.548Z,1.14
2023-01-19T02:13:45.267Z,1.11
2023-01-19T02:18:47.050Z,1.18
2023-01-19T02:23:50.755Z,1.16
2023-01-19T02:28:58.382Z,1.12
2023-01-19T02:34:00.867Z,1.16
2023-01-19T02:39:03.967Z,1.14
2023-01-19T02:44:08.189Z,1.09
2023-01-19T02:49:09.637Z,1.15
2023-01-19T02:54:25.522Z,1.05
2023-01-19T02:59:53.825Z,1.06
2023-01-19T03:05:27.921Z,1.07
2023-01-19T03:10:49.570Z,1.07
2023-01-19T03:16:23.350Z,1.11
2023-01-19T03:21:28.749Z,1.19
2023-01-19T03:26:37.386Z,1.18
2023-01-19T03:31:42.729Z,1.06
2023-01-19T03:36:48.865Z,1.09
2023-01-19T03:41:56.080Z,1.14
2023-01-19T03:46:59.032Z,1.13
2023-01-19T03:52:01.005Z,1.14
2023-01-19T03:57:02.516Z,1.19
2023-01-19T04:02:04.043Z,1.16
2023-01-19T04:07:05.541Z,1.26
2023-01-19T04:12:07.294Z,1.23
2023-01-19T04:17:09.191Z,1.21
2023-01-19T04:22:10.767Z,1.30
2023-01-19T04:27:12.175Z,1.25
2023-01-19T04:32:14.227Z,1.27
2023-01-19T04:37:15.710Z,1.28
2023-01-19T04:42:17.188Z,1.28
2023-01-19T04:47:18.656Z,1.28
2023-01-19T04:52:20.271Z,1.32
2023-01-19T04:57:21.794Z,1.36
2023-01-19T05:02:23.905Z,1.37
2023-01-19T05:07:25.674Z,1.32
2023-01-19T05:12:27.386Z,1.17
2023-01-19T05:17:29.381Z,1.07
2023-01-19T05:22:31.007Z,0.78
2023-01-19T05:27:32.491Z,0.70
2023-01-19T05:32:34.064Z,0.67
2023-01-19T05:37:35.565Z,0.67
2023-01-19T05:42:37.178Z,0.58
2023-01-19T05:47:39.870Z,0.56
2023-01-19T05:52:41.400Z,0.57
2023-01-19T05:57:43.267Z,0.57
2023-01-19T06:02:45.081Z,0.59
2023-01-19T06:07:46.525Z,0.58
2023-01-19T06:12:48.701Z,0.70
2023-01-19T06:17:50.100Z,0.64
2023-01-19T06:22:51.921Z,0.62
2023-01-19T06:27:53.634Z,0.52
2023-01-19T06:32:55.153Z,0.54
2023-01-19T06:37:56.645Z,0.63
2023-01-19T06:42:58.483Z,0.62
2023-01-19T06:48:00.687Z,0.68
2023-01-19T06:53:02.677Z,0.61
2023-01-19T06:58:04.735Z,0.48
2023-01-19T07:03:09.528Z,0.53
2023-01-19T07:08:11.085Z,0.57
2023-01-19T07:13:12.561Z,0.68
2023-01-19T07:18:14.105Z,0.71
2023-01-19T07:23:16.225Z,0.83
2023-01-19T07:28:17.769Z,0.88
2023-01-19T07:33:19.272Z,0.77
2023-01-19T07:38:21.112Z,0.78
2023-01-19T07:43:22.649Z,0.83
2023-01-19T07:48:24.203Z,0.81
2023-01-19T07:53:25.701Z,0.82
2023-01-19T07:58:27.806Z,0.73
2023-01-19T08:03:29.294Z,0.78
2023-01-19T08:08:34.357Z,0.81
2023-01-19T08:13:35.866Z,0.90
2023-01-19T08:18:37.488Z,0.83
2023-01-19T08:23:39.163Z,0.91
2023-01-19T08:28:40.670Z,1.03
2023-01-19T08:33:42.977Z,1.14
2023-01-19T08:38:47.835Z,1.25
2023-01-19T08:43:49.692Z,1.33
2023-01-19T08:48:51.230Z,1.39
2023-01-19T08:53:52.647Z,1.47
2023-01-19T08:59:08.122Z,1.43
2023-01-19T09:04:09.854Z,1.42
2023-01-19T09:09:11.369Z,1.52
2023-01-19T09:14:12.987Z,1.52
2023-01-19T09:19:14.483Z,1.41
2023-01-19T09:24:16.230Z,1.49
2023-01-19T09:29:17.754Z,1.57
2023-01-19T09:34:19.384Z,1.52
2023-01-19T09:39:20.944Z,1.72
2023-01-19T09:44:32.038Z,1.75
2023-01-19T09:49:44.474Z,1.79
2023-01-19T09:54:57.550Z,1.92
2023-01-19T09:59:59.766Z,1.95
2023-01-19T10:05:38.881Z,2.14
2023-01-19T10:10:45.329Z,2.15
2023-01-19T10:16:05.335Z,2.16
2023-01-19T10:21:14.781Z,2.11
2023-01-19T10:26:23.182Z,2.11
2023-01-19T10:31:25.692Z,2.12
2023-01-19T10:36:34.522Z,2.08
2023-01-19T10:42:03.630Z,2.09
2023-01-19T10:47:16.551Z,1.97
2023-01-19T10:52:29.529Z,1.79
2023-01-19T10:57:38.173Z,1.65
2023-01-19T11:02:50.263Z,1.57
2023-01-19T11:07:52.023Z,1.62
2023-01-19T11:13:01.343Z,1.76
2023-01-19T11:18:05.797Z,1.89
2023-01-19T11:23:16.174Z,2.07
2023-01-19T11:28:27.732Z,2.17
2023-01-19T11:33:45.426Z,1.97
2023-01-19T11:38:50.587Z,1.87
2023-01-19T11:43:55.135Z,1.93
2023-01-19T11:49:03.586Z,1.96
2023-01-19T11:54:19.119Z,1.93
2023-01-19T11:59:23.115Z,1.87
2023-01-19T12:04:32.799Z,1.89
2023-01-19T12:09:42.916Z,1.94
2023-01-19T12:15:00.302Z,2.15
2023-01-19T12:20:34.005Z,2.59
2023-01-19T12:25:45.168Z,3.37
2023-01-19T12:30:46.781Z,2.93
2023-01-19T12:36:00.822Z,3.05
2023-01-19T12:41:24.137Z,2.80
2023-01-19T12:46:25.595Z,2.84
2023-01-19T12:51:27.221Z,3.20
2023-01-19T12:56:34.686Z,3.78
2023-01-19T13:01:36.189Z,3.90
2023-01-19T13:06:49.626Z,3.40
2023-01-19T13:12:20.382Z,3.46
2023-01-19T13:17:30.150Z,3.19
2023-01-19T13:22:47.298Z,3.07
2023-01-19T13:27:49.949Z,3.13
2023-01-19T13:32:51.629Z,3.76
2023-01-19T13:37:53.840Z,3.69
2023-01-19T13:42:56.453Z,3.22
2023-01-19T13:48:00.914Z,3.06
2023-01-19T13:53:04.593Z,3.09
2023-01-19T13:58:20.691Z,2.95
2023-01-19T14:03:24.192Z,2.79
2023-01-19T14:08:26.149Z,2.68
2023-01-19T14:13:34.839Z,2.63
2023-01-19T14:18:36.625Z,2.45
2023-01-19T14:23:42.828Z,2.35
2023-01-19T14:28:44.539Z,2.40
2023-01-19T14:33:47.282Z,2.53
2023-01-19T14:38:50.979Z,2.55
2023-01-19T14:43:55.871Z,2.70
2023-01-19T14:49:02.968Z,2.74
2023-01-19T14:54:04.959Z,2.70
2023-01-19T14:59:10.591Z,2.57
2023-01-19T15:04:12.017Z,2.48
2023-01-19T15:09:14.314Z,2.53
2023-01-19T15:14:18.146Z,2.66
2023-01-19T15:19:19.692Z,2.70
2023-01-19T15:24:21.255Z,2.73
2023-01-19T15:29:24.639Z,2.72
2023-01-19T15:34:26.165Z,2.59
2023-01-19T15:39:27.845Z,2.48
2023-01-19T15:44:30.139Z,2.30
2023-01-19T15:49:31.628Z,2.14
2023-01-19T15:54:33.182Z,1.93
2023-01-19T15:59:34.791Z,1.83
2023-01-19T16:04:36.225Z,1.75
2023-01-19T16:09:37.706Z,1.50
2023-01-19T16:14:39.145Z,1.51
2023-01-19T16:19:40.564Z,1.31
2023-01-19T16:24:42.040Z,1.28
2023-01-19T16:29:43.513Z,1.12
2023-01-19T16:34:45.191Z,1.07
2023-01-19T16:39:50.662Z,1.00
2023-01-19T16:44:52.293Z,0.89
2023-01-19T16:49:54.100Z,0.88
2023-01-19T16:54:55.835Z,0.79
2023-01-19T16:59:57.315Z,0.69
2023-01-19T17:05:01.690Z,0.70
2023-01-19T17:10:03.395Z,0.58
2023-01-19T17:15:05.410Z,0.51
2023-01-19T17:20:07.584Z,0.50
2023-01-19T17:25:10.170Z,0.37
2023-01-19T17:30:12.078Z,0.23
2023-01-19T17:35:13.689Z,0.18
2023-01-19T17:40:15.545Z,0.14
2023-01-19T17:45:17.025Z,0.20
2023-01-19T17:50:18.646Z,0.09
2023-01-19T17:55:20.116Z,0.12
2023-01-19T18:00:21.901Z,0.19
2023-01-19T18:05:23.510Z,0.12
2023-01-19T18:10:25.007Z,0.17
2023-01-19T18:15:26.508Z,0.36
2023-01-19T18:20:29.418Z,0.17
2023-01-19T18:25:32.465Z,0.32
2023-01-19T18:30:35.402Z,0.40
2023-01-19T18:35:38.815Z,0.34
2023-01-19T18:40:40.417Z,0.52
2023-01-19T18:45:42.200Z,0.60
2023-01-19T18:50:43.875Z,0.62
2023-01-19T18:55:55.775Z,0.64
2023-01-19T19:01:01.363Z,0.44
2023-01-19T19:06:04.042Z,0.26
2023-01-19T19:11:09.115Z,0.14
2023-01-19T19:16:12.661Z,0.18
2023-01-19T19:21:14.392Z,0.18
2023-01-19T19:26:15.891Z,0.12
2023-01-19T19:31:20.509Z,0.29
2023-01-19T19:36:23.467Z,0.38
2023-01-19T19:41:26.957Z,0.46
2023-01-19T19:46:28.691Z,0.49
2023-01-19T19:51:30.318Z,0.63
2023-01-19T19:56:34.204Z,0.69
2023-01-19T20:01:36.000Z,0.70
2023-01-19T20:06:44.349Z,0.72
2023-01-19T20:11:46.711Z,0.58
2023-01-19T20:16:48.211Z,0.57
2023-01-19T20:21:49.702Z,0.57
2023-01-19T20:26:52.944Z,0.61
2023-01-19T20:31:56.428Z,0.45
2023-01-19T20:36:57.918Z,0.25
2023-01-19T20:41:59.348Z,0.26
2023-01-19T20:47:00.851Z,0.30
2023-01-19T20:52:02.530Z,0.32
2023-01-19T20:57:04.003Z,0.29
2023-01-19T21:02:07.952Z,0.24
2023-01-19T21:07:09.717Z,0.24
2023-01-19T21:12:11.764Z,0.21
2023-01-19T21:17:13.253Z,0.33
2023-01-19T21:22:14.821Z,0.39
2023-01-19T21:27:16.295Z,0.44
2023-01-19T21:32:17.778Z,0.47
2023-01-19T21:37:19.525Z,0.50
2023-01-19T21:42:21.500Z,0.59
2023-01-19T21:47:22.931Z,0.63
2023-01-19T21:52:24.425Z,0.65
2023-01-19T21:57:25.936Z,0.71
2023-01-19T22:02:38.187Z,0.72
2023-01-19T22:07:40.214Z,0.68
2023-01-19T22:12:41.716Z,0.65
2023-01-19T22:17:43.224Z,0.64
2023-01-19T22:22:44.730Z,0.63
2023-01-19T22:27:46.163Z,0.60
2023-01-19T22:32:47.650Z,0.55
2023-01-19T22:37:49.137Z,0.36
2023-01-19T22:42:50.792Z,0.37
2023-01-19T22:47:52.220Z,0.27
2023-01-19T22:52:57.805Z,0.36
2023-01-19T22:57:59.485Z,0.30
2023-01-19T23:03:00.994Z,0.26
2023-01-19T23:08:02.487Z,0.30
2023-01-19T23:13:03.987Z,0.34
2023-01-19T23:18:05.516Z,0.27
2023-01-19T23:23:07.046Z,0.24
2023-01-19T23:28:08.649Z,0.31
2023-01-19T23:33:10.106Z,0.36
2023-01-19T23:38:11.573Z,0.43
2023-01-19T23:43:13.025Z,0.37
2023-01-19T23:48:14.486Z,0.37
2023-01-19T23:53:15.984Z,0.23
2023-01-19T23:58:17.412Z,0.30
